Time;durP1;ratioP1;P1;durP2;ratioP2;P2;SDS_P1;SDS_P2;PMS_P1;PMS_P2;Temp;Humidity;BMP_temperature;BMP_pressure;BME280_temperature;BME280_humidity;BME280_pressure;Samples;Min_cycle;Max_cycle;Signal;HPM_P1;HPM_P2
2024/02/06 00:00:49;;;;;;;9.17;6.10;;;9.70;90.60;;;;;;4968107;29;20550;-89
2024/02/06 00:03:15;;;;;;;8.80;6.20;;;9.70;43.90;;;;;;4967366;29;20502;-89
2024/02/06 00:05:42;;;;;;;8.73;5.43;;;9.70;1.00;;;;;;4968040;28;20987;-89
2024/02/06 00:08:09;;;;;;;5.63;4.87;;;9.70;49.20;;;;;;4969625;29;20450;-88
2024/02/06 00:10:36;;;;;;;7.73;4.83;;;9.70;1.00;;;;;;4973538;29;20473;-89
2024/02/06 00:13:04;;;;;;;9.10;5.90;;;9.70;78.80;;;;;;4969597;29;20457;-89
2024/02/06 00:15:31;;;;;;;10.40;4.73;;;9.70;1.00;;;;;;4964198;28;20449;-88
2024/02/06 00:17:59;;;;;;;11.50;6.70;;;9.70;1.00;;;;;;4963766;29;20858;-89
2024/02/06 00:20:27;;;;;;;11.73;5.07;;;9.70;1.00;;;;;;4963197;29;20524;-90
2024/02/06 00:22:54;;;;;;;10.87;5.63;;;9.70;1.00;;;;;;4962061;28;20450;-90
2024/02/06 00:25:21;;;;;;;6.37;4.87;;;9.60;1.00;;;;;;4964151;28;20476;-90
2024/02/06 00:27:48;;;;;;;7.33;4.80;;;9.60;1.00;;;;;;4964838;28;20471;-90
2024/02/06 00:30:15;;;;;;;6.07;5.47;;;9.60;1.00;;;;;;4971259;29;20421;-88
2024/02/06 00:32:43;;;;;;;6.93;5.03;;;9.60;1.00;;;;;;4968061;28;20967;-88
2024/02/06 00:35:12;;;;;;;13.17;5.73;;;9.60;1.00;;;;;;4964647;28;20474;-90
2024/02/06 00:37:39;;;;;;;8.67;5.00;;;9.60;1.00;;;;;;4963067;29;20505;-89
2024/02/06 00:40:08;;;;;;;9.63;5.80;;;9.50;1.00;;;;;;4962040;29;20572;-89
2024/02/06 00:42:35;;;;;;;9.57;4.10;;;9.60;1.00;;;;;;4961259;29;20489;-90
2024/02/06 00:45:03;;;;;;;7.17;4.47;;;9.60;1.00;;;;;;4960591;28;20987;-90
2024/02/06 00:47:29;;;;;;;5.33;4.20;;;9.60;99.90;;;;;;4964711;28;20458;-89
2024/02/06 00:49:56;;;;;;;10.57;4.70;;;9.60;99.90;;;;;;4981289;28;20424;-89
2024/02/06 00:52:24;;;;;;;7.57;4.77;;;9.60;1.00;;;;;;4981492;28;20478;-89
2024/02/06 00:54:51;;;;;;;6.50;4.27;;;9.60;1.00;;;;;;4964675;28;20473;-90
2024/02/06 00:57:18;;;;;;;5.40;4.40;;;9.60;1.00;;;;;;4965817;29;21038;-90
2024/02/06 00:59:45;;;;;;;5.27;4.67;;;9.60;1.00;;;;;;4960171;29;20576;-90
2024/02/06 01:02:12;;;;;;;9.67;3.97;;;9.60;1.00;;;;;;4965098;29;20536;-90
2024/02/06 01:04:40;;;;;;;8.13;5.10;;;9.60;99.90;;;;;;4967365;28;20550;-90
2024/02/06 01:07:06;;;;;;;8.73;4.50;;;9.70;99.90;;;;;;4961489;29;20450;-90
2024/02/06 01:09:35;;;;;;;7.23;4.50;;;9.60;99.90;;;;;;4962053;29;20800;-90
2024/02/06 01:12:01;;;;;;;6.63;3.90;;;9.60;99.90;;;;;;4963716;29;20449;-89
2024/02/06 01:14:29;;;;;;;9.60;4.30;;;9.60;99.90;;;;;;4960767;28;20501;-90
2024/02/06 01:16:56;;;;;;;9.83;4.03;;;9.60;1.00;;;;;;4960854;29;20799;-89
2024/02/06 01:19:23;;;;;;;8.53;4.50;;;9.60;1.00;;;;;;4961850;29;20461;-89
2024/02/06 01:21:50;;;;;;;5.30;4.10;;;9.50;1.00;;;;;;4963094;29;20463;-89
2024/02/06 01:24:17;;;;;;;5.97;4.63;;;9.50;1.00;;;;;;4962528;28;20869;-89
2024/02/06 01:26:45;;;;;;;11.00;4.50;;;9.50;1.00;;;;;;4961404;29;20825;-91
2024/02/06 01:29:12;;;;;;;6.17;4.00;;;9.50;1.00;;;;;;4961001;29;20484;-89
2024/02/06 01:31:38;;;;;;;7.77;4.40;;;9.60;1.00;;;;;;4965573;29;20510;-90
2024/02/06 01:34:06;;;;;;;4.80;4.10;;;9.60;1.00;;;;;;4976242;28;20426;-89
2024/02/06 01:36:34;;;;;;;4.43;3.57;;;9.50;1.00;;;;;;4963766;28;20454;-89
2024/02/06 01:39:01;;;;;;;6.10;4.10;;;9.50;1.00;;;;;;4959905;29;20432;-90
2024/02/06 01:41:28;;;;;;;4.73;4.23;;;9.50;1.00;;;;;;4959458;29;20577;-90
2024/02/06 03:03:07;;;;;;;4.90;4.50;;;8.90;92.60;;;;;;4999937;28;20425;-90
2024/02/06 03:05:34;;;;;;;7.10;5.30;;;9.00;18.20;;;;;;4999994;28;20457;-90
2024/02/06 03:08:01;;;;;;;6.97;5.30;;;9.00;1.00;;;;;;4999324;28;20441;-89
2024/02/06 03:10:27;;;;;;;6.70;4.80;;;9.00;6.10;;;;;;4992997;28;20507;-88
2024/02/06 03:12:54;;;;;;;8.23;5.23;;;9.00;99.90;;;;;;4977995;28;20456;-88
2024/02/06 03:15:21;;;;;;;8.43;5.63;;;8.90;99.80;;;;;;4978310;28;20561;-89
2024/02/06 03:17:51;;;;;;;6.07;5.17;;;8.90;59.40;;;;;;4979902;28;20453;-89
2024/02/06 03:20:20;;;;;;;9.17;4.77;;;9.00;99.90;;;;;;4979364;28;20463;-89
2024/02/06 03:22:48;;;;;;;7.93;4.90;;;9.00;99.90;;;;;;4980347;28;20432;-88
2024/02/06 03:25:15;;;;;;;5.97;4.73;;;8.90;79.30;;;;;;4979957;28;20505;-89
2024/02/06 03:27:45;;;;;;;9.27;5.53;;;9.00;93.20;;;;;;4985878;28;20517;-89
2024/02/06 03:30:13;;;;;;;6.60;4.70;;;8.90;99.90;;;;;;4992956;28;20535;-88
2024/02/06 03:32:40;;;;;;;4.47;4.10;;;9.00;99.90;;;;;;4992682;28;20452;-88
2024/02/06 03:35:08;;;;;;;5.83;4.40;;;9.00;99.90;;;;;;4996466;28;20420;-88
2024/02/06 03:37:36;;;;;;;5.37;4.40;;;9.00;99.90;;;;;;4986093;28;20451;-88
2024/02/06 03:40:04;;;;;;;7.00;4.80;;;9.00;1.00;;;;;;4981130;28;20927;-88
2024/02/06 03:42:30;;;;;;;4.30;4.00;;;9.00;1.00;;;;;;4979851;28;20525;-88
2024/02/06 03:44:57;;;;;;;4.53;4.10;;;9.00;1.00;;;;;;4979014;28;20444;-89
2024/02/06 03:47:25;;;;;;;9.30;4.43;;;9.00;1.00;;;;;;4979447;28;20519;-88
2024/02/06 03:49:52;;;;;;;5.73;3.90;;;9.00;1.00;;;;;;4979756;28;20445;-88
2024/02/06 03:52:19;;;;;;;4.13;3.47;;;9.10;99.90;;;;;;4978342;28;20511;-88
2024/02/06 03:54:48;;;;;;;4.23;3.03;;;9.10;99.90;;;;;;4977961;28;20938;-89
2024/02/06 03:57:15;;;;;;;3.30;3.10;;;9.10;99.90;;;;;;4977799;28;20445;-89
2024/02/06 03:59:43;;;;;;;5.50;3.17;;;9.10;41.80;;;;;;4977880;28;20451;-89
2024/02/06 04:02:10;;;;;;;4.03;3.63;;;9.10;1.00;;;;;;4981930;28;20516;-89
2024/02/06 04:04:38;;;;;;;3.83;3.37;;;9.10;1.00;;;;;;4977177;28;20449;-87
2024/02/06 04:07:06;;;;;;;3.87;3.03;;;9.10;1.00;;;;;;4977852;28;20457;-87
2024/02/06 04:09:33;;;;;;;4.17;3.60;;;9.10;1.00;;;;;;4977600;28;20431;-89
2024/02/06 04:12:02;;;;;;;4.17;3.77;;;9.10;1.00;;;;;;4978487;28;20416;-89
2024/02/06 04:14:32;;;;;;;4.53;3.50;;;9.10;1.00;;;;;;4981177;28;21021;-88
2024/02/06 04:16:59;;;;;;;3.03;2.83;;;9.10;1.00;;;;;;4988811;28;20434;-89
2024/02/06 04:19:26;;;;;;;4.70;3.50;;;9.20;1.00;;;;;;4995718;28;20480;-90
2024/02/06 04:21:54;;;;;;;3.87;3.17;;;9.20;99.90;;;;;;4995750;28;20468;-90
2024/02/06 04:24:22;;;;;;;5.03;3.50;;;9.20;99.90;;;;;;5002106;28;20416;-89
2024/02/06 04:26:49;;;;;;;3.93;3.50;;;9.20;99.90;;;;;;5001451;28;20474;-89
2024/02/06 04:29:17;;;;;;;3.10;2.73;;;9.20;99.90;;;;;;4998371;28;20484;-88
2024/02/06 04:31:44;;;;;;;5.47;3.07;;;9.20;99.90;;;;;;4987062;28;20495;-88
2024/02/06 04:34:11;;;;;;;6.17;3.03;;;9.20;96.90;;;;;;4984708;28;20476;-88
2024/02/06 04:36:38;;;;;;;4.80;3.10;;;9.20;99.90;;;;;;4984460;28;20469;-88
2024/02/06 04:39:06;;;;;;;7.13;3.23;;;9.20;99.90;;;;;;4984155;28;20455;-88
2024/02/06 04:41:48;;;;;;;3.93;2.70;;;9.20;99.90;;;;;;4989038;28;20508;-91
2024/02/06 04:44:17;;;;;;;4.70;2.80;;;9.20;99.90;;;;;;4997924;28;20874;-89
2024/02/06 04:46:44;;;;;;;4.30;2.60;;;9.20;99.90;;;;;;4987682;28;20816;-89
2024/02/06 04:49:11;;;;;;;4.10;3.77;;;9.20;1.00;;;;;;4982892;28;20880;-89
2024/02/06 04:51:38;;;;;;;2.77;2.50;;;9.20;99.90;;;;;;4984741;28;20771;-88
2024/02/06 04:54:06;;;;;;;4.17;2.80;;;9.20;1.00;;;;;;4984753;28;20431;-88
2024/02/06 04:56:33;;;;;;;4.20;2.70;;;9.20;1.00;;;;;;4983211;28;20873;-89
2024/02/06 04:59:01;;;;;;;5.30;3.07;;;9.20;1.00;;;;;;4983090;28;20510;-88
2024/02/06 05:01:31;;;;;;;3.13;2.70;;;9.20;1.00;;;;;;4983536;28;20480;-88
2024/02/06 05:03:58;;;;;;;6.00;3.40;;;9.20;99.90;;;;;;4983720;28;20433;-88
2024/02/06 05:06:25;;;;;;;5.80;3.30;;;9.20;99.90;;;;;;4985509;28;20913;-89
2024/02/06 05:08:52;;;;;;;2.73;2.53;;;9.10;99.90;;;;;;4986923;28;20420;-87
2024/02/06 05:11:20;;;;;;;3.70;3.40;;;9.10;1.00;;;;;;4989291;28;20424;-89
2024/02/06 05:13:47;;;;;;;6.97;2.80;;;9.10;1.00;;;;;;4985571;28;20462;-88
2024/02/06 05:16:14;;;;;;;4.57;3.37;;;9.20;1.00;;;;;;4986691;28;20473;-88
2024/02/06 05:18:42;;;;;;;3.60;3.30;;;9.10;1.00;;;;;;4984484;28;20889;-88
2024/02/06 05:21:09;;;;;;;4.53;3.80;;;9.20;1.00;;;;;;4984446;28;20548;-88
2024/02/06 05:23:36;;;;;;;3.63;3.30;;;9.20;1.00;;;;;;4982289;28;20452;-89
2024/02/06 05:26:04;;;;;;;8.83;3.90;;;9.20;1.00;;;;;;4982903;28;20479;-89
2024/02/06 05:28:31;;;;;;;4.47;3.83;;;9.10;1.00;;;;;;4981945;28;20485;-87
2024/02/06 05:30:58;;;;;;;3.73;3.43;;;9.10;1.00;;;;;;4985087;28;20445;-88
2024/02/06 05:33:25;;;;;;;3.37;3.10;;;9.20;1.00;;;;;;4984307;28;20467;-88
2024/02/06 05:35:53;;;;;;;3.10;2.90;;;9.10;1.00;;;;;;4981975;28;20808;-88
2024/02/06 05:38:20;;;;;;;5.77;3.30;;;9.10;1.00;;;;;;4990686;28;20451;-87
2024/02/06 05:40:47;;;;;;;5.53;3.47;;;9.20;1.00;;;;;;4991093;28;20500;-89
2024/02/06 05:43:15;;;;;;;4.40;3.17;;;9.20;1.00;;;;;;4985738;28;20416;-88
2024/02/06 05:45:41;;;;;;;5.00;3.70;;;9.10;99.90;;;;;;4986297;28;20481;-88
2024/02/06 05:48:09;;;;;;;4.30;3.93;;;9.20;99.90;;;;;;4989182;28;20467;-88
2024/02/06 05:50:36;;;;;;;5.83;3.67;;;9.20;99.90;;;;;;4996080;28;20416;-88
2024/02/06 05:53:04;;;;;;;4.07;3.77;;;9.20;1.00;;;;;;4995654;28;20495;-88
2024/02/06 05:55:31;;;;;;;4.50;3.47;;;9.30;99.90;;;;;;4994440;28;20446;-89
2024/02/06 05:57:59;;;;;;;4.10;3.70;;;9.40;99.90;;;;;;4990163;28;20481;-89
2024/02/06 06:00:27;;;;;;;7.00;4.50;;;9.40;99.90;;;;;;4982201;28;20457;-88
2024/02/06 06:02:55;;;;;;;5.80;3.30;;;9.40;99.90;;;;;;4999074;28;20489;-88
2024/02/06 06:05:24;;;;;;;5.53;3.30;;;9.40;99.90;;;;;;5000582;28;20513;-87
2024/02/06 06:07:50;;;;;;;5.77;3.93;;;9.40;99.90;;;;;;5000469;28;20496;-88
2024/02/06 06:10:19;;;;;;;5.57;3.37;;;9.40;99.90;;;;;;5000305;28;20457;-88
2024/02/06 06:12:47;;;;;;;6.00;3.80;;;9.40;86.00;;;;;;5000020;28;20437;-89
2024/02/06 06:15:15;;;;;;;7.47;3.23;;;9.50;1.00;;;;;;4995615;28;20443;-88
2024/02/06 06:17:42;;;;;;;6.57;3.50;;;9.50;1.00;;;;;;4987913;28;20460;-88
2024/02/06 06:20:10;;;;;;;3.27;2.97;;;9.50;1.00;;;;;;4980590;28;20526;-88
2024/02/06 06:22:37;;;;;;;3.03;2.83;;;9.50;1.00;;;;;;4993999;28;20504;-89
2024/02/06 06:25:18;;;;;;;4.23;2.90;;;9.50;1.00;;;;;;4980732;28;20500;-91
2024/02/06 06:27:58;;;;;;;5.13;3.70;;;9.50;1.00;;;;;;4995787;28;20473;-89
2024/02/06 06:30:34;;;;;;;3.87;3.60;;;9.50;1.00;;;;;;4999474;28;20442;-89
2024/02/06 06:33:09;;;;;;;3.23;3.00;;;9.60;1.00;;;;;;5000091;28;20483;-88
2024/02/06 06:35:49;;;;;;;6.37;3.67;;;9.50;1.00;;;;;;4987844;28;20473;-88
2024/02/06 06:38:34;;;;;;;2.90;2.60;;;9.50;1.00;;;;;;4983184;28;20507;-87
2024/02/06 06:41:03;;;;;;;3.27;2.97;;;9.70;1.00;;;;;;4979988;28;20454;-89
2024/02/06 06:43:32;;;;;;;7.37;3.27;;;9.60;1.00;;;;;;4979870;28;20453;-89
2024/02/06 06:46:04;;;;;;;4.63;4.10;;;9.60;1.00;;;;;;4986505;28;20453;-89
2024/02/06 06:49:18;;;;;;;3.43;3.20;;;9.60;78.70;;;;;;4989510;28;20471;-89
2024/02/06 06:52:05;;;;;;;3.40;3.10;;;9.50;33.10;;;;;;4979720;28;20468;-91
2024/02/06 06:54:54;;;;;;;3.37;2.77;;;9.60;99.90;;;;;;4979639;28;20536;-90
2024/02/06 06:57:58;;;;;;;3.60;3.30;;;9.60;49.10;;;;;;4979363;28;20418;-89
2024/02/06 07:00:46;;;;;;;3.90;3.50;;;9.60;1.00;;;;;;4957171;28;20459;-89
2024/02/06 07:03:13;;;;;;;5.40;3.17;;;9.60;1.00;;;;;;4981240;28;20818;-88
2024/02/06 07:05:54;;;;;;;4.80;3.57;;;9.60;1.00;;;;;;4992121;28;20533;-89
2024/02/06 07:08:32;;;;;;;6.43;3.70;;;9.60;1.00;;;;;;4984713;28;20444;-88
2024/02/06 07:11:12;;;;;;;3.80;3.50;;;9.70;1.00;;;;;;4980395;28;20445;-89
2024/02/06 07:23:35;;;;;;;3.30;2.90;;;9.70;99.90;;;;;;4954459;28;20802;-89
2024/02/06 07:26:14;;;;;;;5.20;2.90;;;9.70;1.00;;;;;;4923141;29;20478;-89
2024/02/06 07:28:43;;;;;;;3.40;3.20;;;9.70;1.00;;;;;;4967137;28;20794;-88
2024/02/06 07:37:08;;;;;;;4.40;3.20;;;9.90;1.00;;;;;;5047070;23;21072;-88
2024/02/06 07:39:47;;;;;;;4.27;3.17;;;9.80;1.00;;;;;;4979317;28;20959;-89
2024/02/06 07:42:52;;;;;;;3.90;3.23;;;9.80;1.00;;;;;;4980645;28;20476;-90
2024/02/06 07:45:30;;;;;;;3.23;3.03;;;9.90;1.00;;;;;;4983073;28;20484;-89
2024/02/06 07:48:07;;;;;;;16.43;8.63;;;9.90;1.00;;;;;;4982933;28;20466;-89
2024/02/06 07:50:34;;;;;;;8.33;4.03;;;9.90;1.00;;;;;;5038096;23;20568;-90
2024/02/06 07:53:02;;;;;;;6.73;4.37;;;9.90;1.00;;;;;;4997295;28;20484;-90
2024/02/06 07:55:29;;;;;;;8.67;7.83;;;9.90;99.90;;;;;;4998805;28;20433;-89
2024/02/06 08:01:29;;;;;;;3.17;2.87;;;9.90;99.90;;;;;;4961616;28;20874;-88
2024/02/06 08:03:56;;;;;;;4.30;2.60;;;10.00;99.90;;;;;;4961682;28;20900;-88
2024/02/06 08:06:23;;;;;;;2.70;2.20;;;10.00;99.90;;;;;;4961336;28;20839;-87
2024/02/06 08:08:52;;;;;;;3.20;2.80;;;9.90;1.00;;;;;;4960579;29;20450;-87
2024/02/06 08:11:20;;;;;;;4.60;3.00;;;9.90;1.00;;;;;;4961523;28;20536;-88
2024/02/06 08:13:46;;;;;;;7.63;3.00;;;10.00;1.00;;;;;;4961965;28;20513;-88
2024/02/06 08:16:14;;;;;;;3.00;2.30;;;9.90;1.00;;;;;;4961856;28;20504;-88
2024/02/06 08:18:41;;;;;;;5.70;3.00;;;9.90;1.00;;;;;;4962523;29;20429;-88
2024/02/06 08:21:08;;;;;;;5.13;2.80;;;9.90;1.00;;;;;;4961429;28;21024;-87
2024/02/06 08:23:34;;;;;;;2.57;2.33;;;10.00;1.00;;;;;;4961849;29;20522;-88
2024/02/06 08:26:04;;;;;;;3.57;2.47;;;10.10;99.90;;;;;;4961208;28;20457;-88
2024/02/06 08:28:31;;;;;;;3.60;3.20;;;10.10;99.90;;;;;;4962230;29;20456;-87
2024/02/06 08:30:58;;;;;;;3.90;2.97;;;10.10;99.90;;;;;;4961847;28;20466;-87
2024/02/06 08:33:25;;;;;;;5.63;3.13;;;10.10;99.90;;;;;;4966119;29;20509;-87
2024/02/06 08:35:54;;;;;;;4.80;2.50;;;10.10;31.90;;;;;;4970672;28;20487;-87
2024/02/06 08:38:20;;;;;;;3.00;2.60;;;10.20;1.00;;;;;;4973982;29;20452;-88
2024/02/06 08:40:48;;;;;;;3.23;2.33;;;10.20;1.00;;;;;;4971111;28;20565;-87
2024/02/06 08:43:17;;;;;;;4.07;3.03;;;10.20;99.90;;;;;;4972733;29;20537;-87
2024/02/06 08:45:44;;;;;;;2.83;2.43;;;10.30;1.00;;;;;;4961828;28;20537;-87
2024/02/06 08:48:10;;;;;;;2.90;2.70;;;10.30;1.00;;;;;;4960803;29;20461;-89
2024/02/06 08:50:37;;;;;;;3.20;2.90;;;10.30;1.00;;;;;;4960704;28;20497;-88
2024/02/06 08:53:05;;;;;;;2.63;2.27;;;10.30;1.00;;;;;;4962197;29;20438;-88
2024/02/06 08:55:33;;;;;;;3.33;3.00;;;10.40;1.00;;;;;;4969564;28;20454;-88
2024/02/06 08:58:00;;;;;;;3.00;2.20;;;10.40;1.00;;;;;;4966787;29;20429;-88
2024/02/06 09:00:31;;;;;;;5.00;2.50;;;10.40;1.00;;;;;;4960750;28;20477;-89
2024/02/06 09:02:59;;;;;;;2.83;2.63;;;10.30;1.00;;;;;;4961287;28;20555;-89
2024/02/06 09:05:26;;;;;;;4.63;2.70;;;10.40;1.00;;;;;;4961435;28;20421;-88
2024/02/06 09:07:53;;;;;;;5.63;2.83;;;10.40;1.00;;;;;;4960117;29;20442;-88
2024/02/06 09:10:22;;;;;;;4.70;2.70;;;10.50;1.00;;;;;;4960898;28;20477;-88
2024/02/06 09:12:50;;;;;;;3.57;3.30;;;10.50;99.90;;;;;;4966426;29;20446;-88
2024/02/06 09:15:17;;;;;;;2.87;2.50;;;10.60;99.90;;;;;;4961651;28;20538;-88
2024/02/06 09:17:47;;;;;;;3.70;2.50;;;10.60;99.90;;;;;;4961140;28;20442;-87
2024/02/06 09:20:14;;;;;;;2.80;2.50;;;10.60;99.90;;;;;;4959387;28;20561;-87
2024/02/06 09:22:41;;;;;;;3.17;2.17;;;10.70;99.90;;;;;;4959399;28;20592;-87
2024/02/06 09:25:10;;;;;;;5.50;2.20;;;10.70;99.90;;;;;;4960455;28;20476;-87
2024/02/06 09:27:36;;;;;;;3.03;2.27;;;10.70;99.90;;;;;;4960586;28;20501;-87
2024/02/06 09:30:04;;;;;;;4.80;2.20;;;10.70;99.90;;;;;;4961586;29;20454;-88
2024/02/06 09:32:33;;;;;;;4.10;2.60;;;10.70;99.90;;;;;;4968830;28;20541;-87
2024/02/06 09:35:01;;;;;;;7.63;2.63;;;10.70;99.90;;;;;;4981663;28;20521;-87
2024/02/06 09:37:28;;;;;;;2.67;2.40;;;10.80;99.90;;;;;;4981691;28;20501;-87
2024/02/06 09:39:55;;;;;;;4.30;3.43;;;10.80;99.90;;;;;;4981507;28;20521;-87
2024/02/06 09:42:22;;;;;;;4.30;1.90;;;10.70;99.90;;;;;;4981168;28;20489;-87
2024/02/06 09:47:41;;;;;;;3.90;3.07;;;10.80;99.90;;;;;;4948028;28;20441;-87
2024/02/06 09:50:10;;;;;;;6.60;2.63;;;10.80;99.90;;;;;;4962650;29;20494;-88
2024/02/06 09:52:39;;;;;;;3.30;3.00;;;10.80;99.90;;;;;;4959202;28;21010;-88
2024/02/06 09:55:09;;;;;;;3.17;2.93;;;10.80;99.90;;;;;;4959492;29;20517;-88
2024/02/06 09:57:38;;;;;;;2.37;2.17;;;10.90;99.90;;;;;;4959407;28;20472;-88
2024/02/06 10:00:08;;;;;;;2.10;1.90;;;10.90;99.90;;;;;;4960002;28;20477;-88
2024/02/06 10:02:38;;;;;;;3.17;2.70;;;10.90;99.90;;;;;;4962743;28;20478;-87
2024/02/06 10:05:07;;;;;;;3.20;1.93;;;10.90;99.90;;;;;;4960532;28;20439;-87
2024/02/06 10:07:37;;;;;;;2.93;2.10;;;11.00;99.90;;;;;;4961785;29;20518;-88
2024/02/06 10:10:05;;;;;;;3.30;2.33;;;11.00;99.90;;;;;;4961456;28;20827;-87
2024/02/06 10:12:32;;;;;;;4.17;2.23;;;11.10;99.90;;;;;;4964643;29;20425;-88
2024/02/06 10:14:59;;;;;;;2.27;1.97;;;11.10;99.90;;;;;;4960396;28;20454;-88
2024/02/06 10:17:26;;;;;;;5.73;2.07;;;11.10;98.40;;;;;;4961023;29;20433;-88
2024/02/06 10:19:53;;;;;;;2.60;2.17;;;11.10;86.90;;;;;;4959321;28;20440;-87
2024/02/06 10:22:20;;;;;;;3.33;2.13;;;11.20;93.10;;;;;;4963730;29;20467;-88
2024/02/06 10:24:48;;;;;;;2.10;1.93;;;11.10;47.20;;;;;;4960889;28;20498;-87
2024/02/06 10:27:18;;;;;;;5.13;2.00;;;11.10;58.50;;;;;;4963779;28;20523;-87
2024/02/06 10:29:56;;;;;;;2.60;2.00;;;11.20;68.30;;;;;;4974512;28;20421;-88
2024/02/06 10:32:23;;;;;;;3.40;2.27;;;11.20;49.00;;;;;;4970656;29;20465;-88
2024/02/06 10:35:00;;;;;;;3.60;1.90;;;11.30;44.00;;;;;;4961462;28;20454;-89
2024/02/06 10:37:27;;;;;;;2.97;1.80;;;11.30;69.70;;;;;;4958593;29;20397;-87
2024/02/06 10:40:06;;;;;;;3.23;2.43;;;11.20;68.30;;;;;;4960349;28;20470;-87
2024/02/06 10:42:33;;;;;;;3.00;1.97;;;11.20;93.80;;;;;;4965217;28;20564;-87
2024/02/06 10:45:01;;;;;;;2.50;2.30;;;11.20;91.30;;;;;;4959762;29;20450;-88
2024/02/06 10:47:28;;;;;;;3.30;2.03;;;11.30;99.90;;;;;;4959355;28;20454;-87
2024/02/06 10:50:02;;;;;;;4.97;2.17;;;11.30;99.90;;;;;;4958908;28;20517;-88
2024/02/06 10:52:29;;;;;;;5.00;2.67;;;11.20;99.90;;;;;;4959350;28;20437;-87
2024/02/06 10:54:58;;;;;;;2.60;2.40;;;11.20;99.90;;;;;;4958601;29;20452;-88
2024/02/06 10:57:27;;;;;;;3.53;3.03;;;11.10;99.90;;;;;;4958005;28;20965;-88
2024/02/06 11:00:00;;;;;;;7.00;2.20;;;11.10;99.90;;;;;;4959117;29;20529;-88
2024/02/06 11:02:30;;;;;;;4.20;2.10;;;11.20;99.90;;;;;;4962736;28;20462;-87
2024/02/06 11:05:05;;;;;;;2.43;2.20;;;11.10;99.90;;;;;;4970795;28;20442;-87
2024/02/06 11:07:41;;;;;;;3.63;2.03;;;11.20;99.90;;;;;;4972435;28;20516;-88
2024/02/06 11:10:12;;;;;;;2.10;2.00;;;11.20;99.90;;;;;;4971503;28;20517;-87
2024/02/06 11:12:40;;;;;;;2.57;2.07;;;11.30;99.90;;;;;;4968122;29;20450;-87
2024/02/06 11:15:11;;;;;;;4.23;2.30;;;11.30;99.90;;;;;;4961929;28;20873;-88
2024/02/06 11:17:39;;;;;;;4.57;3.00;;;11.20;99.90;;;;;;4970781;28;20434;-88
2024/02/06 11:20:13;;;;;;;4.17;2.37;;;11.30;99.90;;;;;;4959823;28;20470;-87
2024/02/06 11:22:41;;;;;;;3.37;2.13;;;11.20;99.90;;;;;;4958372;28;21076;-86
2024/02/06 11:25:12;;;;;;;2.83;1.70;;;11.20;99.90;;;;;;4963458;29;20454;-88
2024/02/06 11:27:40;;;;;;;2.13;1.70;;;11.10;99.90;;;;;;4966033;28;20438;-88
2024/02/06 11:30:08;;;;;;;1.90;1.73;;;11.10;99.90;;;;;;4966629;29;20478;-88
2024/02/06 11:32:35;;;;;;;2.13;2.00;;;11.00;1.00;;;;;;4970197;28;20956;-87
2024/02/06 11:35:03;;;;;;;2.43;1.77;;;11.00;1.00;;;;;;4970241;29;20449;-88
2024/02/06 11:37:31;;;;;;;2.83;2.00;;;11.00;1.00;;;;;;4970731;28;20540;-87
2024/02/06 11:40:08;;;;;;;2.13;2.00;;;11.00;1.00;;;;;;4970222;29;20481;-87
2024/02/06 11:42:37;;;;;;;2.10;1.93;;;11.00;1.00;;;;;;4970907;28;20565;-88
2024/02/06 11:45:09;;;;;;;3.10;1.97;;;11.10;1.00;;;;;;4969071;29;20434;-87
2024/02/06 11:47:36;;;;;;;2.33;2.00;;;11.10;99.90;;;;;;4973188;28;20405;-88
2024/02/06 11:50:12;;;;;;;4.00;1.90;;;11.20;99.90;;;;;;4976517;29;20508;-87
2024/02/06 11:52:39;;;;;;;4.27;1.80;;;11.20;99.90;;;;;;4975758;28;20430;-87
2024/02/06 11:55:07;;;;;;;4.33;1.80;;;11.30;99.90;;;;;;4971997;29;20525;-86
2024/02/06 11:57:37;;;;;;;6.57;2.70;;;11.40;99.90;;;;;;4964520;28;20461;-87
2024/02/06 12:00:04;;;;;;;2.17;1.97;;;11.40;99.90;;;;;;4963535;29;20453;-87
2024/02/06 12:02:31;;;;;;;2.63;2.00;;;11.40;99.90;;;;;;4964320;28;20509;-87
2024/02/06 12:05:06;;;;;;;2.57;2.00;;;11.40;99.90;;;;;;4962887;29;20457;-87
2024/02/06 12:07:33;;;;;;;1.87;1.67;;;11.40;93.10;;;;;;4962625;28;20453;-87
2024/02/06 12:10:00;;;;;;;3.20;2.03;;;11.40;79.40;;;;;;4962586;29;20987;-87
2024/02/06 12:12:27;;;;;;;16.63;9.70;;;11.50;23.80;;;;;;4971364;28;20490;-87
2024/02/06 12:14:56;;;;;;;3.90;2.17;;;11.50;7.80;;;;;;4969116;29;20540;-87
2024/02/06 12:17:23;;;;;;;4.00;1.50;;;11.50;1.00;;;;;;4971504;28;20428;-87
2024/02/06 12:19:51;;;;;;;2.40;2.03;;;11.60;1.00;;;;;;4964529;29;21029;-88
2024/02/06 12:22:19;;;;;;;2.83;1.90;;;11.60;1.00;;;;;;4964709;29;20446;-88
2024/02/06 12:24:46;;;;;;;1.57;1.33;;;11.60;1.00;;;;;;4962287;28;20450;-87
2024/02/06 12:27:13;;;;;;;3.80;1.97;;;11.70;1.00;;;;;;4961755;29;20442;-87
2024/02/06 12:29:41;;;;;;;2.80;1.73;;;11.70;1.00;;;;;;4971401;28;20876;-88
2024/02/06 12:32:09;;;;;;;6.23;2.03;;;11.70;1.00;;;;;;4961468;29;20453;-88
2024/02/06 12:34:37;;;;;;;2.70;1.63;;;11.70;1.00;;;;;;4962900;28;20458;-87
2024/02/06 12:37:04;;;;;;;2.17;1.97;;;11.70;1.00;;;;;;4964958;29;20488;-87
2024/02/06 12:39:32;;;;;;;2.27;2.00;;;11.80;1.00;;;;;;4963585;28;20497;-87
2024/02/06 12:42:00;;;;;;;1.70;1.60;;;11.90;1.00;;;;;;4974826;28;20426;-88
2024/02/06 12:44:27;;;;;;;2.33;1.60;;;11.80;1.00;;;;;;4968161;28;20500;-88
2024/02/06 12:46:54;;;;;;;3.43;1.93;;;11.80;1.00;;;;;;4967202;28;20484;-88
2024/02/06 12:49:24;;;;;;;3.43;1.90;;;11.80;1.00;;;;;;4963559;28;20891;-87
2024/02/06 12:51:51;;;;;;;2.20;1.93;;;11.70;1.00;;;;;;4964158;29;20564;-87
2024/02/06 12:54:18;;;;;;;2.47;1.70;;;11.70;1.00;;;;;;4969465;28;20438;-87
2024/02/06 12:56:45;;;;;;;5.23;2.00;;;11.70;1.00;;;;;;4977086;28;20504;-88
2024/02/06 12:59:12;;;;;;;3.70;2.23;;;11.70;1.00;;;;;;4976927;29;20454;-87
2024/02/06 13:01:39;;;;;;;4.93;1.60;;;11.70;1.00;;;;;;4982143;28;20458;-87
2024/02/06 13:04:05;;;;;;;4.00;2.00;;;11.70;1.00;;;;;;4981906;28;20497;-87
2024/02/06 13:06:39;;;;;;;5.00;1.90;;;11.70;1.00;;;;;;4964721;28;20480;-87
2024/02/06 13:09:07;;;;;;;8.10;2.17;;;11.80;1.00;;;;;;4979535;28;20458;-88
2024/02/06 13:11:36;;;;;;;8.30;1.90;;;11.80;1.00;;;;;;4982223;28;20450;-87
2024/02/06 13:14:03;;;;;;;10.33;2.50;;;11.80;1.00;;;;;;4982076;28;20457;-88
2024/02/06 13:16:31;;;;;;;2.50;1.97;;;11.70;1.00;;;;;;4973040;28;20434;-87
2024/02/06 13:18:59;;;;;;;1.90;1.70;;;11.80;1.00;;;;;;4961554;29;20468;-88
2024/02/06 13:21:26;;;;;;;3.47;2.27;;;11.80;1.00;;;;;;4962037;29;20477;-87
2024/02/06 13:23:54;;;;;;;4.33;2.00;;;11.70;1.00;;;;;;4961184;28;20478;-88
2024/02/06 13:26:22;;;;;;;5.37;2.17;;;11.80;1.00;;;;;;4959718;29;20446;-88
2024/02/06 13:28:57;;;;;;;5.10;2.10;;;11.80;1.00;;;;;;4960364;28;20450;-88
2024/02/06 13:31:24;;;;;;;3.07;1.60;;;11.80;1.00;;;;;;4960443;29;20483;-88
2024/02/06 13:33:51;;;;;;;5.33;2.43;;;11.80;1.00;;;;;;4960161;28;20446;-88
2024/02/06 13:36:19;;;;;;;3.67;2.10;;;11.80;1.00;;;;;;4960486;28;20454;-88
2024/02/06 13:38:46;;;;;;;7.10;3.23;;;11.70;1.00;;;;;;4960581;29;20453;-88
2024/02/06 13:41:14;;;;;;;2.60;1.83;;;11.70;1.00;;;;;;4960425;28;20469;-88
2024/02/06 13:43:42;;;;;;;2.27;2.10;;;11.70;1.00;;;;;;4960051;29;20460;-88
2024/02/06 13:46:09;;;;;;;2.60;2.07;;;11.70;1.00;;;;;;4964843;28;20445;-87
2024/02/06 13:48:36;;;;;;;2.30;2.03;;;11.70;1.00;;;;;;4970677;29;20522;-87
2024/02/06 13:51:03;;;;;;;3.93;1.70;;;11.60;1.00;;;;;;4987440;23;20520;-90
2024/02/06 13:56:12;;;;;;;1.80;1.70;;;11.60;73.70;;;;;;4990127;28;20528;-89
2024/02/06 13:58:42;;;;;;;1.83;1.50;;;11.50;99.90;;;;;;4994868;28;20425;-89
2024/02/06 14:01:11;;;;;;;2.40;1.53;;;11.50;99.90;;;;;;4996158;28;20453;-89
2024/02/06 14:03:38;;;;;;;3.50;1.97;;;11.50;90.30;;;;;;4998566;28;20469;-90
2024/02/06 14:06:05;;;;;;;6.07;1.53;;;11.60;28.30;;;;;;4999375;28;20453;-90
2024/02/06 14:08:33;;;;;;;3.37;1.90;;;11.60;6.40;;;;;;4999052;28;20438;-90
2024/02/06 14:11:00;;;;;;;2.87;1.80;;;11.60;22.00;;;;;;4999501;28;20471;-90
2024/02/06 14:13:28;;;;;;;2.00;1.80;;;11.60;67.50;;;;;;5000048;28;20453;-90
2024/02/06 14:16:00;;;;;;;3.20;2.00;;;11.60;59.00;;;;;;4999346;28;20441;-90
2024/02/06 14:18:28;;;;;;;3.90;2.67;;;11.50;42.40;;;;;;4999887;28;20440;-89
2024/02/06 14:21:03;;;;;;;4.53;2.97;;;11.60;52.50;;;;;;4997208;28;20454;-89
2024/02/06 14:23:31;;;;;;;5.63;1.73;;;11.50;96.30;;;;;;4994177;28;20468;-89
2024/02/06 14:28:44;;;;;;;2.50;1.90;;;11.50;98.10;;;;;;4996119;28;20441;-89
2024/02/06 14:31:28;;;;;;;2.40;1.50;;;11.50;98.30;;;;;;4995475;28;20566;-89
2024/02/06 14:34:00;;;;;;;5.37;2.23;;;11.50;99.90;;;;;;4995670;28;20464;-90
2024/02/06 14:36:27;;;;;;;3.00;2.33;;;11.60;99.90;;;;;;4994051;28;20445;-89
2024/02/06 14:38:55;;;;;;;4.20;1.73;;;11.50;99.90;;;;;;4994097;28;20461;-90
2024/02/06 14:44:03;;;;;;;2.37;2.17;;;11.60;94.00;;;;;;4997211;28;20507;-89
2024/02/06 14:46:33;;;;;;;2.10;2.00;;;11.60;59.30;;;;;;4994654;28;20817;-90
2024/02/06 14:49:01;;;;;;;2.70;2.27;;;11.60;75.60;;;;;;4991603;28;20473;-91
2024/02/06 14:56:55;;;;;;;2.10;1.70;;;11.60;95.30;;;;;;4994093;28;20421;-90
2024/02/06 14:59:24;;;;;;;1.93;1.83;;;11.60;80.00;;;;;;4997627;28;20422;-90
2024/02/06 15:01:56;;;;;;;3.30;2.00;;;11.60;86.00;;;;;;4993800;28;20445;-90